Terminal Aerodrome Forecast
Issued by NWS Billings, MT

Current Version | Previous Version | Text Only | Print | Product List | Glossary On
Versions: 1 2 3 4 5 6 7 8 9 10 11 12 13 14
000
FTUS45 KBYZ 302320
TAFSHR
TAF
KSHR 302320Z 0100/0124 VRB05KT P6SM BKN120
     FM010300 29010G20KT P6SM VCSH SCT025 BKN060
     FM010900 31015KT P6SM BKN080
     FM011500 31015G25KT P6SM SCT100
     FM012000 32025G35KT P6SM VCSH SCT040 BKN080=

USA.gov is the U.S. government's official web portal to all federal, state and local government web resources and services.